createdAt,value
2017-08-17T00:01:57.578Z,10.03
2017-08-17T00:04:30.657Z,10.80
2017-08-17T00:07:03.329Z,12.33
2017-08-17T00:09:34.561Z,12.47
2017-08-17T00:12:10.261Z,7.80
2017-08-17T00:14:41.720Z,11.07
2017-08-17T00:17:13.223Z,11.03
2017-08-17T00:19:44.339Z,8.10
2017-08-17T00:22:15.947Z,9.37
2017-08-17T00:24:48.975Z,12.13
2017-08-17T00:27:20.002Z,9.03
2017-08-17T00:29:51.045Z,13.90
2017-08-17T00:32:22.189Z,13.83
2017-08-17T00:34:53.272Z,10.60
2017-08-17T00:37:24.386Z,10.97
2017-08-17T00:39:56.648Z,14.67
2017-08-17T00:42:27.852Z,14.03
2017-08-17T00:45:01.027Z,12.30
2017-08-17T00:47:32.464Z,8.60
2017-08-17T00:50:07.073Z,7.33
2017-08-17T00:52:38.202Z,9.17
2017-08-17T00:55:10.150Z,9.30
2017-08-17T00:57:41.187Z,14.40
2017-08-17T01:00:13.687Z,11.30
2017-08-17T01:02:45.263Z,13.63
2017-08-17T01:05:16.318Z,10.33
2017-08-17T01:07:47.362Z,11.50
2017-08-17T01:10:19.433Z,17.30
2017-08-17T01:12:50.484Z,10.73
2017-08-17T01:15:21.582Z,11.93
2017-08-17T01:17:53.212Z,11.70
2017-08-17T01:20:24.258Z,15.37
2017-08-17T01:22:55.582Z,14.40
2017-08-17T01:25:26.704Z,10.83
2017-08-17T01:28:00.621Z,13.10
2017-08-17T01:30:31.663Z,11.37
2017-08-17T01:33:04.431Z,11.77
2017-08-17T01:35:35.492Z,11.00
2017-08-17T01:38:07.907Z,10.00
2017-08-17T01:40:38.958Z,14.50
2017-08-17T01:43:10.463Z,11.60
2017-08-17T01:45:41.482Z,11.80
2017-08-17T01:48:12.690Z,10.70
2017-08-17T01:50:43.813Z,17.00
2017-08-17T01:53:15.239Z,14.73
2017-08-17T01:55:46.271Z,20.47
2017-08-17T01:58:17.874Z,11.80
2017-08-17T02:00:49.466Z,15.20
2017-08-17T02:03:20.453Z,13.83
2017-08-17T02:05:51.826Z,15.97
2017-08-17T02:08:22.843Z,15.13
2017-08-17T02:10:53.896Z,14.43
2017-08-17T02:13:24.861Z,16.40
2017-08-17T02:15:57.636Z,17.20
2017-08-17T02:18:28.652Z,13.63
2017-08-17T02:21:00.219Z,15.70
2017-08-17T02:23:31.689Z,15.30
2017-08-17T02:26:06.353Z,18.60
2017-08-17T02:28:37.355Z,20.23
2017-08-17T02:31:08.726Z,20.73
2017-08-17T02:33:39.714Z,24.07
2017-08-17T02:36:13.326Z,22.53
2017-08-17T02:38:45.053Z,15.57
2017-08-17T02:41:16.080Z,19.07
2017-08-17T02:43:47.065Z,13.40
2017-08-17T02:46:18.122Z,15.80
2017-08-17T02:48:49.526Z,16.20
2017-08-17T02:51:20.509Z,17.10
2017-08-17T02:53:53.157Z,16.50
2017-08-17T02:58:51.703Z,17.23
2017-08-17T03:01:22.702Z,23.23
2017-08-17T03:03:54.211Z,16.10
2017-08-17T03:06:25.218Z,18.90
2017-08-17T03:08:57.420Z,13.70
2017-08-17T03:11:28.434Z,14.73
2017-08-17T03:14:02.921Z,18.43
2017-08-17T03:16:33.953Z,14.23
2017-08-17T03:19:05.407Z,17.87
2017-08-17T03:21:36.417Z,22.87
2017-08-17T03:24:07.570Z,19.30
2017-08-17T03:26:38.571Z,16.37
2017-08-17T03:29:09.899Z,13.73
2017-08-17T03:31:41.227Z,24.47
2017-08-17T03:34:13.222Z,13.30
2017-08-17T03:36:44.779Z,15.50
2017-08-17T03:39:15.773Z,18.20
2017-08-17T03:41:47.658Z,29.97
2017-08-17T03:44:19.334Z,15.50
2017-08-17T03:46:50.406Z,15.87
2017-08-17T03:49:21.660Z,17.40
2017-08-17T03:51:52.665Z,21.23
2017-08-17T03:54:23.784Z,18.00
2017-08-17T03:56:55.317Z,16.60
2017-08-17T03:59:26.521Z,15.60
2017-08-17T04:01:59.662Z,17.23
2017-08-17T04:04:31.009Z,18.73
2017-08-17T04:07:02.549Z,16.60
2017-08-17T04:09:33.537Z,22.70
2017-08-17T04:12:05.562Z,21.07
2017-08-17T04:14:37.013Z,22.80
2017-08-17T04:17:08.009Z,24.80
2017-08-17T04:19:39.004Z,21.97
2017-08-17T04:22:10.911Z,20.03
2017-08-17T04:24:41.909Z,20.97
2017-08-17T04:27:12.896Z,23.23
2017-08-17T04:29:44.256Z,21.80
2017-08-17T04:32:15.253Z,18.10
2017-08-17T04:34:46.261Z,22.27
2017-08-17T04:37:17.229Z,17.50
2017-08-17T04:39:48.786Z,19.17
2017-08-17T04:42:20.424Z,20.50
2017-08-17T04:44:51.493Z,21.33
2017-08-17T04:47:23.014Z,17.30
2017-08-17T04:49:54.077Z,16.60
2017-08-17T04:52:25.253Z,21.90
2017-08-17T04:54:57.161Z,20.90
2017-08-17T04:57:44.200Z,21.00
2017-08-17T05:00:16.178Z,18.20
2017-08-17T05:02:47.657Z,20.90
2017-08-17T05:05:18.779Z,20.90
2017-08-17T05:07:49.835Z,24.30
2017-08-17T05:10:20.906Z,23.00
2017-08-17T05:12:52.392Z,21.63
2017-08-17T05:15:23.870Z,22.07
2017-08-17T05:17:54.949Z,21.97
2017-08-17T05:20:26.335Z,19.57
2017-08-17T05:22:58.071Z,19.23
2017-08-17T05:25:29.334Z,24.90
2017-08-17T05:28:05.191Z,26.73
2017-08-17T05:30:36.495Z,20.77
2017-08-17T05:33:07.494Z,20.63
2017-08-17T05:35:38.830Z,21.50
2017-08-17T05:38:09.873Z,14.70
2017-08-17T05:40:40.881Z,14.60
2017-08-17T05:43:12.220Z,17.43
2017-08-17T05:45:43.246Z,16.33
2017-08-17T05:48:15.120Z,24.93
2017-08-17T05:50:46.137Z,19.93
2017-08-17T05:53:17.157Z,21.50
2017-08-17T05:55:48.207Z,26.13
2017-08-17T05:58:19.264Z,21.37
2017-08-17T06:00:50.347Z,26.57
2017-08-17T06:03:21.367Z,27.30
2017-08-17T06:05:52.343Z,19.53
2017-08-17T06:08:24.021Z,18.43
2017-08-17T06:10:55.240Z,32.43
2017-08-17T06:13:26.234Z,18.53
2017-08-17T06:15:58.245Z,28.13
2017-08-17T06:18:29.670Z,35.20
2017-08-17T06:21:02.478Z,31.17
2017-08-17T06:23:33.478Z,20.70
2017-08-17T06:26:05.963Z,19.27
2017-08-17T06:28:36.964Z,12.97
2017-08-17T06:31:07.972Z,13.13
2017-08-17T06:33:39.078Z,17.77
2017-08-17T06:36:11.414Z,16.63
2017-08-17T06:38:42.674Z,16.20
2017-08-17T06:41:13.703Z,13.40
2017-08-17T06:43:44.685Z,18.83
2017-08-17T06:46:16.941Z,14.13
2017-08-17T06:48:47.946Z,13.33
2017-08-17T06:51:19.571Z,13.50
2017-08-17T06:53:50.635Z,13.70
2017-08-17T06:56:22.377Z,11.80
2017-08-17T06:58:53.733Z,14.43
2017-08-17T07:01:24.779Z,15.83
2017-08-17T07:03:55.793Z,18.97
2017-08-17T07:06:27.149Z,20.70
2017-08-17T07:08:59.656Z,15.93
2017-08-17T07:11:30.738Z,13.77
2017-08-17T07:14:04.060Z,18.67
2017-08-17T07:16:35.058Z,10.50
2017-08-17T07:19:06.064Z,18.43
2017-08-17T07:21:37.365Z,12.03
2017-08-17T07:24:08.455Z,7.33
2017-08-17T07:26:39.469Z,10.10
2017-08-17T07:29:10.858Z,11.50
2017-08-17T07:31:41.843Z,10.80
2017-08-17T07:34:13.940Z,9.20
2017-08-17T07:36:44.930Z,8.43
2017-08-17T07:39:15.897Z,11.87
2017-08-17T07:41:46.929Z,12.43
2017-08-17T07:44:17.921Z,11.80
2017-08-17T07:46:49.335Z,8.60
2017-08-17T07:49:20.622Z,10.63
2017-08-17T07:51:51.863Z,9.13
2017-08-17T07:54:22.997Z,12.20
2017-08-17T07:56:54.028Z,9.13
2017-08-17T07:59:25.025Z,6.97
2017-08-17T08:01:57.277Z,7.80
2017-08-17T08:04:28.378Z,8.53
2017-08-17T08:07:01.818Z,11.10
2017-08-17T08:09:34.019Z,8.40
2017-08-17T08:12:07.883Z,8.87
2017-08-17T08:14:38.855Z,10.40
2017-08-17T08:17:10.177Z,10.40
2017-08-17T08:19:41.146Z,9.00
2017-08-17T08:22:13.085Z,7.53
2017-08-17T08:24:44.438Z,7.10
2017-08-17T08:27:15.414Z,11.73
2017-08-17T08:29:46.459Z,10.03
2017-08-17T08:32:18.329Z,16.80
2017-08-17T08:34:49.397Z,8.93
2017-08-17T08:37:20.436Z,8.20
2017-08-17T08:39:51.561Z,9.73
2017-08-17T08:42:23.150Z,7.77
2017-08-17T08:44:54.175Z,9.60
2017-08-17T08:47:25.308Z,8.57
2017-08-17T08:49:57.306Z,12.87
2017-08-17T08:52:30.289Z,10.90
2017-08-17T08:55:08.674Z,9.40
2017-08-17T08:57:39.789Z,15.00
2017-08-17T09:00:15.672Z,32.03
2017-08-17T09:02:49.185Z,13.23
2017-08-17T09:05:20.280Z,16.30
2017-08-17T09:07:52.492Z,11.60
2017-08-17T09:10:23.562Z,11.33
2017-08-17T09:13:02.441Z,18.70
2017-08-17T09:15:37.201Z,11.10
2017-08-17T09:18:10.001Z,9.30
2017-08-17T09:20:42.259Z,21.43
2017-08-17T09:23:13.729Z,13.07
2017-08-17T09:25:45.199Z,9.50
2017-08-17T09:28:19.128Z,10.17
2017-08-17T09:31:15.897Z,8.67
2017-08-17T09:33:47.030Z,16.13
2017-08-17T09:36:21.992Z,12.20
2017-08-17T09:38:53.441Z,11.50
2017-08-17T09:41:24.430Z,11.23
2017-08-17T09:43:55.590Z,11.60
2017-08-17T09:46:26.708Z,14.27
2017-08-17T09:49:02.529Z,14.63
2017-08-17T09:51:33.517Z,8.47
2017-08-17T09:54:07.519Z,11.17
2017-08-17T09:56:38.921Z,11.43
2017-08-17T09:59:09.924Z,8.40
2017-08-17T10:01:40.930Z,9.40
2017-08-17T10:04:12.317Z,8.80
2017-08-17T10:06:43.307Z,11.77
2017-08-17T10:09:14.314Z,25.57
2017-08-17T10:11:45.790Z,9.73
2017-08-17T10:14:17.868Z,9.00
2017-08-17T10:16:49.184Z,10.97
2017-08-17T10:19:20.530Z,8.97
2017-08-17T10:21:51.595Z,7.60
2017-08-17T10:24:23.549Z,12.10
2017-08-17T10:26:54.542Z,11.50
2017-08-17T10:29:25.531Z,5.73
2017-08-17T10:31:57.347Z,6.30
2017-08-17T10:34:28.725Z,7.30
2017-08-17T10:37:02.586Z,5.77
2017-08-17T10:39:33.669Z,5.87
2017-08-17T10:42:08.637Z,6.80
2017-08-17T10:44:39.946Z,4.60
2017-08-17T10:47:11.165Z,12.00
2017-08-17T10:49:42.835Z,12.10
2017-08-17T10:52:15.691Z,14.70
2017-08-17T10:54:47.002Z,6.87
2017-08-17T10:57:18.039Z,8.67
2017-08-17T10:59:49.483Z,7.20
2017-08-17T11:02:21.317Z,6.00
2017-08-17T11:04:52.598Z,6.17
2017-08-17T11:07:23.932Z,5.97
2017-08-17T11:09:55.220Z,6.43
2017-08-17T11:12:26.275Z,4.17
2017-08-17T11:15:05.035Z,3.53
2017-08-17T11:17:37.184Z,4.77
2017-08-17T11:20:10.977Z,4.90
2017-08-17T11:22:42.714Z,6.73
2017-08-17T11:25:13.904Z,7.43
2017-08-17T11:27:45.214Z,4.47
2017-08-17T11:30:19.813Z,6.90
2017-08-17T11:32:51.009Z,6.13
2017-08-17T11:35:22.331Z,4.57
2017-08-17T11:37:53.558Z,4.83
2017-08-17T11:40:25.803Z,4.23
2017-08-17T11:43:03.512Z,5.40
2017-08-17T11:45:36.816Z,5.47
2017-08-17T11:48:09.511Z,3.27
2017-08-17T11:50:41.204Z,4.43
2017-08-17T11:53:13.259Z,6.80
2017-08-17T11:58:41.382Z,7.40
2017-08-17T12:01:13.038Z,6.50
2017-08-17T12:03:44.099Z,15.43
2017-08-17T12:06:18.025Z,4.67
2017-08-17T12:08:49.094Z,4.77
2017-08-17T12:11:20.536Z,4.17
2017-08-17T12:13:51.909Z,4.10
2017-08-17T12:16:23.889Z,4.03
2017-08-17T12:18:55.311Z,5.73
2017-08-17T12:21:27.339Z,5.77
2017-08-17T12:24:04.643Z,4.63
2017-08-17T12:26:35.656Z,5.03
2017-08-17T12:29:07.338Z,4.03
2017-08-17T12:31:38.479Z,4.10
2017-08-17T12:34:12.852Z,4.03
2017-08-17T12:36:44.288Z,8.53
2017-08-17T12:39:15.365Z,4.97
2017-08-17T12:41:48.547Z,3.83
2017-08-17T12:44:20.797Z,3.80
2017-08-17T12:46:52.064Z,5.53
2017-08-17T12:49:23.662Z,2.87
2017-08-17T12:51:55.572Z,4.73
2017-08-17T12:54:26.988Z,4.83
2017-08-17T12:57:07.770Z,2.50
2017-08-17T12:59:39.040Z,3.27
2017-08-17T13:02:12.022Z,6.07
2017-08-17T13:04:43.625Z,2.37
2017-08-17T13:07:15.302Z,4.37
2017-08-17T13:09:46.619Z,6.90
2017-08-17T13:12:19.656Z,4.57
2017-08-17T13:14:51.985Z,9.20
2017-08-17T13:20:35.973Z,1.90
2017-08-17T13:23:10.503Z,5.77
2017-08-17T13:25:42.041Z,3.00
2017-08-17T13:28:13.776Z,3.10
2017-08-17T13:30:47.936Z,6.10
2017-08-17T13:33:19.202Z,5.30
2017-08-17T13:35:51.030Z,2.20
2017-08-17T13:38:28.211Z,4.77
